createdAt,value
2018-06-25T00:01:03.341Z,9.47
2018-06-25T00:06:07.130Z,8.90
2018-06-25T00:11:11.150Z,8.37
2018-06-25T00:16:14.930Z,7.80
2018-06-25T00:21:18.705Z,8.40
2018-06-25T00:26:22.667Z,7.83
2018-06-25T00:31:26.570Z,7.40
2018-06-25T00:36:30.711Z,6.83
2018-06-25T00:41:34.485Z,7.50
2018-06-25T00:46:38.285Z,7.72
2018-06-25T00:51:42.313Z,7.83
2018-06-25T00:56:46.330Z,8.20
2018-06-25T01:01:50.141Z,7.87
2018-06-25T01:06:53.965Z,7.50
2018-06-25T01:11:57.739Z,8.13
2018-06-25T01:17:01.754Z,8.40
2018-06-25T01:22:06.121Z,8.33
2018-06-25T01:27:10.673Z,8.50
2018-06-25T01:32:14.461Z,10.57
2018-06-25T01:37:18.471Z,10.90
2018-06-25T01:42:22.491Z,12.47
2018-06-25T01:47:26.277Z,12.33
2018-06-25T01:52:30.116Z,12.63
2018-06-25T01:57:34.133Z,12.13
2018-06-25T02:02:37.925Z,12.30
2018-06-25T02:07:41.726Z,14.00
2018-06-25T02:12:45.512Z,13.20
2018-06-25T02:17:49.549Z,11.77
2018-06-25T02:22:53.377Z,11.77
2018-06-25T02:27:57.172Z,11.70
2018-06-25T02:33:01.259Z,11.50
2018-06-25T02:38:05.343Z,11.07
2018-06-25T02:43:09.122Z,11.90
2018-06-25T02:48:13.165Z,11.80
2018-06-25T02:53:17.210Z,13.53
2018-06-25T02:58:21.009Z,13.60
2018-06-25T03:03:24.793Z,14.40
2018-06-25T03:08:28.703Z,14.37
2018-06-25T03:13:32.821Z,14.30
2018-06-25T03:18:36.631Z,13.23
2018-06-25T03:23:40.697Z,13.90
2018-06-25T03:28:44.770Z,14.00
2018-06-25T03:33:48.835Z,12.77
2018-06-25T03:38:52.898Z,13.37
2018-06-25T03:43:56.720Z,12.33
2018-06-25T03:49:00.519Z,13.37
2018-06-25T03:54:04.319Z,13.20
2018-06-25T03:59:08.481Z,13.40
2018-06-25T04:04:12.295Z,12.47
2018-06-25T04:09:16.366Z,13.33
2018-06-25T04:14:20.393Z,14.07
2018-06-25T04:19:24.226Z,14.13
2018-06-25T04:24:28.052Z,13.30
2018-06-25T04:29:31.870Z,14.00
2018-06-25T04:34:35.925Z,12.80
2018-06-25T04:39:39.730Z,12.93
2018-06-25T04:44:43.553Z,11.50
2018-06-25T04:49:47.363Z,11.67
2018-06-25T04:54:51.196Z,12.90
2018-06-25T04:59:55.229Z,13.83
2018-06-25T05:04:59.031Z,13.23
2018-06-25T05:10:03.149Z,14.03
2018-06-25T05:15:06.948Z,16.50
2018-06-25T05:20:11.027Z,14.60
2018-06-25T05:25:14.830Z,14.63
2018-06-25T05:30:18.608Z,13.50
2018-06-25T05:35:22.421Z,14.57
2018-06-25T05:40:26.438Z,13.00
2018-06-25T05:45:30.213Z,12.87
2018-06-25T05:50:34.235Z,12.10
2018-06-25T05:55:38.046Z,10.53
2018-06-25T06:00:41.857Z,9.43
2018-06-25T06:05:45.632Z,9.17
2018-06-25T06:10:49.425Z,9.70
2018-06-25T06:15:53.435Z,8.93
2018-06-25T06:20:57.276Z,9.20
2018-06-25T06:26:01.585Z,9.40
2018-06-25T06:31:05.378Z,9.35
2018-06-25T06:36:08.797Z,10.63
2018-06-25T06:41:12.564Z,8.50
2018-06-25T06:46:16.669Z,8.53
2018-06-25T06:51:20.531Z,9.07
2018-06-25T06:56:24.538Z,11.07
2018-06-25T07:01:28.350Z,14.00
2018-06-25T07:06:32.196Z,15.27
2018-06-25T07:11:36.113Z,16.00
2018-06-25T07:16:40.921Z,14.17
2018-06-25T07:21:44.979Z,11.20
2018-06-25T07:26:48.809Z,10.90
2018-06-25T07:31:53.055Z,11.07
2018-06-25T07:36:56.862Z,11.63
2018-06-25T07:42:00.687Z,13.87
2018-06-25T07:47:04.829Z,11.73
2018-06-25T07:52:08.577Z,10.77
2018-06-25T07:57:12.422Z,10.47
2018-06-25T08:02:16.277Z,9.63
2018-06-25T08:07:21.124Z,9.23
2018-06-25T08:12:24.906Z,9.13
2018-06-25T08:17:28.901Z,9.07
2018-06-25T08:22:32.686Z,9.30
2018-06-25T08:27:37.708Z,8.73
2018-06-25T08:32:41.477Z,8.87
2018-06-25T08:37:45.249Z,8.70
2018-06-25T08:42:49.253Z,8.67
2018-06-25T08:47:53.029Z,8.90
2018-06-25T08:52:56.804Z,8.33
2018-06-25T08:58:00.632Z,7.97
2018-06-25T09:03:04.436Z,7.77
2018-06-25T09:08:08.164Z,8.30
2018-06-25T09:13:11.936Z,7.93
2018-06-25T09:18:15.957Z,8.80
2018-06-25T09:23:19.980Z,9.20
2018-06-25T09:28:23.969Z,9.33
2018-06-25T09:33:28.041Z,9.03
2018-06-25T09:38:32.054Z,9.13
2018-06-25T09:43:36.071Z,8.40
2018-06-25T09:48:40.079Z,8.10
2018-06-25T09:53:44.521Z,7.03
2018-06-25T09:58:48.438Z,6.90
2018-06-25T10:03:52.229Z,8.00
2018-06-25T10:08:56.297Z,8.07
2018-06-25T10:14:00.168Z,7.43
2018-06-25T10:19:04.433Z,7.33
2018-06-25T10:24:08.641Z,6.70
2018-06-25T10:29:12.449Z,8.20
2018-06-25T10:34:16.273Z,9.23
2018-06-25T10:39:20.084Z,9.23
2018-06-25T10:44:23.870Z,7.43
2018-06-25T10:49:27.900Z,6.07
2018-06-25T10:54:32.045Z,7.13
2018-06-25T10:59:36.207Z,10.67
2018-06-25T11:04:40.173Z,10.70
2018-06-25T11:09:43.974Z,8.38
2018-06-25T11:14:47.913Z,6.60
2018-06-25T11:19:51.709Z,6.17
2018-06-25T11:24:55.684Z,7.23
2018-06-25T11:29:59.485Z,6.20
2018-06-25T11:35:03.545Z,6.60
2018-06-25T11:40:07.601Z,9.70
2018-06-25T11:45:11.645Z,10.57
2018-06-25T11:50:15.699Z,10.67
2018-06-25T11:55:19.499Z,10.73
2018-06-25T12:00:23.270Z,11.80
2018-06-25T12:05:27.037Z,12.57
2018-06-25T12:10:31.107Z,14.50
2018-06-25T12:15:36.074Z,16.75
2018-06-25T12:20:39.884Z,17.60
2018-06-25T12:25:43.668Z,17.30
2018-06-25T12:30:47.439Z,17.30
2018-06-25T12:35:51.671Z,16.30
2018-06-25T12:40:55.724Z,15.17
2018-06-25T12:45:59.713Z,15.80
2018-06-25T12:51:03.498Z,14.77
2018-06-25T12:56:07.314Z,12.97
2018-06-25T13:01:11.113Z,11.97
2018-06-25T13:06:15.016Z,11.00
2018-06-25T13:11:18.820Z,11.67
2018-06-25T13:16:22.877Z,12.10
2018-06-25T13:21:27.501Z,12.73
2018-06-25T13:26:31.357Z,12.47
2018-06-25T13:31:35.198Z,12.93
2018-06-25T13:36:38.984Z,10.13
2018-06-25T13:41:43.091Z,10.23
2018-06-25T13:46:47.138Z,11.10
2018-06-25T13:51:50.958Z,12.20
2018-06-25T13:56:54.786Z,13.77
2018-06-25T14:01:58.619Z,12.40
2018-06-25T14:07:02.671Z,13.20
2018-06-25T14:12:06.473Z,14.83
2018-06-25T14:17:10.558Z,17.10
2018-06-25T14:22:14.365Z,15.30
2018-06-25T14:27:18.407Z,17.43
2018-06-25T14:32:27.501Z,17.77
2018-06-25T14:37:31.575Z,18.17
2018-06-25T14:42:35.633Z,18.47
2018-06-25T14:47:39.444Z,16.27
2018-06-25T14:52:43.337Z,15.47
2018-06-25T14:57:47.389Z,14.17
2018-06-25T15:02:52.396Z,11.30
2018-06-25T15:07:56.221Z,10.40
2018-06-25T15:13:01.075Z,9.70
2018-06-25T15:18:05.577Z,8.53
2018-06-25T15:23:09.382Z,6.53
2018-06-25T15:28:13.197Z,6.47
2018-06-25T15:33:16.992Z,5.00
2018-06-25T15:38:20.821Z,4.28
2018-06-25T15:43:24.866Z,4.77
2018-06-25T15:48:28.905Z,5.47
2018-06-25T15:53:32.981Z,3.60
2018-06-25T15:58:37.027Z,3.70
2018-06-25T16:03:40.833Z,3.70
2018-06-25T16:08:44.636Z,3.73
2018-06-25T16:13:48.505Z,3.60
2018-06-25T16:18:52.513Z,3.40
2018-06-25T16:23:56.305Z,3.00
2018-06-25T16:29:00.223Z,4.07
2018-06-25T16:34:04.324Z,3.80
2018-06-25T16:39:10.227Z,3.37
2018-06-25T16:44:14.110Z,3.30
2018-06-25T16:49:17.930Z,3.40
2018-06-25T16:54:21.732Z,3.23
2018-06-25T16:59:25.561Z,3.60
2018-06-25T17:04:29.342Z,3.20
2018-06-25T17:09:33.384Z,3.67
2018-06-25T17:14:37.197Z,3.40
2018-06-25T17:19:41.005Z,3.17
2018-06-25T17:24:44.814Z,2.97
2018-06-25T17:29:48.841Z,3.30
2018-06-25T17:34:52.645Z,3.47
2018-06-25T17:39:56.440Z,3.90
2018-06-25T17:45:00.342Z,3.37
2018-06-25T17:50:04.206Z,3.73
2018-06-25T17:55:08.064Z,3.67
2018-06-25T18:00:11.837Z,3.80
2018-06-25T18:05:15.608Z,3.63
2018-06-25T18:10:19.537Z,4.13
2018-06-25T18:15:23.534Z,3.80
2018-06-25T18:20:27.317Z,3.43
2018-06-25T18:25:31.117Z,4.40
2018-06-25T18:30:35.866Z,4.50
2018-06-25T18:35:39.889Z,4.27
2018-06-25T18:40:43.902Z,4.17
2018-06-25T18:45:48.798Z,3.80
2018-06-25T18:50:52.923Z,4.07
2018-06-25T18:55:56.771Z,3.63
2018-06-25T19:01:00.602Z,4.47
2018-06-25T19:06:04.530Z,3.67
2018-06-25T19:11:08.585Z,4.00
2018-06-25T19:16:12.700Z,4.33
2018-06-25T19:21:16.534Z,3.70
2018-06-25T19:26:20.431Z,3.57
2018-06-25T19:31:26.526Z,3.90
2018-06-25T19:36:30.343Z,3.90
2018-06-25T19:41:34.413Z,3.80
2018-06-25T19:46:38.482Z,4.20
2018-06-25T19:51:42.619Z,4.27
2018-06-25T19:56:46.664Z,4.00
2018-06-25T20:01:50.666Z,4.60
2018-06-25T20:06:54.682Z,4.30
2018-06-25T20:11:58.573Z,4.63
2018-06-25T20:17:02.640Z,4.40
2018-06-25T20:22:06.508Z,4.80
2018-06-25T20:27:10.196Z,4.83
2018-06-25T20:32:14.223Z,4.90
2018-06-25T20:37:18.041Z,4.90
2018-06-25T20:42:21.823Z,4.97
2018-06-25T20:47:25.855Z,5.47
2018-06-25T20:52:29.903Z,4.67
2018-06-25T20:57:34.116Z,5.03
2018-06-25T21:02:38.121Z,5.00
2018-06-25T21:07:41.906Z,5.40
2018-06-25T21:12:45.904Z,5.27
2018-06-25T21:17:49.700Z,5.43
2018-06-25T21:22:53.487Z,6.00
2018-06-25T21:27:57.298Z,5.07
2018-06-25T21:33:01.076Z,5.63
2018-06-25T21:38:05.162Z,5.50
2018-06-25T21:43:08.933Z,6.00
2018-06-25T21:48:12.708Z,6.10
2018-06-25T21:53:16.730Z,5.93
2018-06-25T21:58:20.599Z,5.30
2018-06-25T22:03:24.635Z,6.10
2018-06-25T22:08:28.452Z,6.30
2018-06-25T22:13:32.267Z,5.87
2018-06-25T22:18:36.072Z,5.70
2018-06-25T22:23:40.129Z,6.20
2018-06-25T22:28:43.925Z,6.20
2018-06-25T22:33:47.985Z,5.87
2018-06-25T22:38:52.164Z,6.30
2018-06-25T22:44:10.859Z,6.20
2018-06-25T22:49:14.653Z,6.70
2018-06-25T22:54:18.460Z,6.10
2018-06-25T22:59:23.049Z,6.63
2018-06-25T23:04:27.100Z,6.27
2018-06-25T23:09:31.166Z,5.93
2018-06-25T23:14:35.026Z,6.77
2018-06-25T23:19:38.877Z,5.87
2018-06-25T23:24:42.685Z,6.47
2018-06-25T23:29:46.729Z,6.67
2018-06-25T23:34:50.537Z,6.00
2018-06-25T23:39:54.340Z,5.93
2018-06-25T23:44:58.157Z,6.12
2018-06-25T23:50:02.274Z,6.30
2018-06-25T23:55:06.060Z,6.10
